sensor_id;sensor_type;location;lat;lon;timestamp;pressure;altitude;pressure_sealevel;temperature;humidity
38812;BME280;24553;51.640;-0.752;2023-03-18T00:00:46;99695.97;;;11.96;100.00
38812;BME280;24553;51.640;-0.752;2023-03-18T00:03:12;99693.06;;;11.97;100.00
38812;BME280;24553;51.640;-0.752;2023-03-18T00:05:38;99695.56;;;11.92;100.00
38812;BME280;24553;51.640;-0.752;2023-03-18T00:08:04;99691.47;;;11.96;100.00
38812;BME280;24553;51.640;-0.752;2023-03-18T00:10:30;99691.31;;;12.10;100.00
38812;BME280;24553;51.640;-0.752;2023-03-18T00:12:57;99699.69;;;12.13;100.00
38812;BME280;24553;51.640;-0.752;2023-03-18T00:15:24;99692.81;;;12.06;100.00
38812;BME280;24553;51.640;-0.752;2023-03-18T00:17:49;99691.25;;;11.98;100.00
38812;BME280;24553;51.640;-0.752;2023-03-18T00:20:15;99694.91;;;11.97;100.00
38812;BME280;24553;51.640;-0.752;2023-03-18T00:22:43;99700.88;;;11.92;100.00
38812;BME280;24553;51.640;-0.752;2023-03-18T00:25:12;99698.91;;;11.88;100.00
38812;BME280;24553;51.640;-0.752;2023-03-18T00:27:38;99697.06;;;11.88;100.00
38812;BME280;24553;51.640;-0.752;2023-03-18T00:30:05;99689.69;;;11.90;100.00
38812;BME280;24553;51.640;-0.752;2023-03-18T00:32:31;99696.25;;;11.88;100.00
38812;BME280;24553;51.640;-0.752;2023-03-18T00:34:57;99690.94;;;11.81;100.00
38812;BME280;24553;51.640;-0.752;2023-03-18T00:37:24;99701.78;;;11.79;100.00
38812;BME280;24553;51.640;-0.752;2023-03-18T00:39:59;99702.88;;;11.72;100.00
38812;BME280;24553;51.640;-0.752;2023-03-18T00:42:38;99694.03;;;11.78;100.00
38812;BME280;24553;51.640;-0.752;2023-03-18T00:45:12;99693.41;;;11.83;100.00
38812;BME280;24553;51.640;-0.752;2023-03-18T00:47:37;99694.03;;;11.78;100.00
38812;BME280;24553;51.640;-0.752;2023-03-18T00:50:05;99697.56;;;11.72;100.00
38812;BME280;24553;51.640;-0.752;2023-03-18T00:52:31;99694.75;;;11.67;100.00
38812;BME280;24553;51.640;-0.752;2023-03-18T00:54:58;99695.41;;;11.62;100.00
38812;BME280;24553;51.640;-0.752;2023-03-18T00:57:24;99689.69;;;11.58;100.00
38812;BME280;24553;51.640;-0.752;2023-03-18T00:59:49;99691.56;;;11.58;100.00
38812;BME280;24553;51.640;-0.752;2023-03-18T01:02:15;99691.19;;;11.54;100.00
38812;BME280;24553;51.640;-0.752;2023-03-18T01:04:41;99684.84;;;11.55;100.00
38812;BME280;24553;51.640;-0.752;2023-03-18T01:07:07;99691.94;;;11.62;100.00
38812;BME280;24553;51.640;-0.752;2023-03-18T01:09:33;99694.38;;;11.63;100.00
38812;BME280;24553;51.640;-0.752;2023-03-18T01:11:58;99689.28;;;11.62;100.00
38812;BME280;24553;51.640;-0.752;2023-03-18T01:14:24;99694.00;;;11.60;100.00
38812;BME280;24553;51.640;-0.752;2023-03-18T01:16:49;99689.53;;;11.53;100.00
38812;BME280;24553;51.640;-0.752;2023-03-18T01:19:15;99691.63;;;11.51;100.00
38812;BME280;24553;51.640;-0.752;2023-03-18T01:21:40;99685.00;;;11.61;100.00
38812;BME280;24553;51.640;-0.752;2023-03-18T01:24:06;99687.88;;;11.59;100.00
38812;BME280;24553;51.640;-0.752;2023-03-18T01:26:31;99674.81;;;11.57;100.00
38812;BME280;24553;51.640;-0.752;2023-03-18T01:28:57;99677.63;;;11.63;100.00
38812;BME280;24553;51.640;-0.752;2023-03-18T01:31:23;99672.75;;;11.60;100.00
38812;BME280;24553;51.640;-0.752;2023-03-18T01:33:50;99669.47;;;11.64;100.00
38812;BME280;24553;51.640;-0.752;2023-03-18T01:36:16;99676.38;;;11.65;100.00
38812;BME280;24553;51.640;-0.752;2023-03-18T01:38:42;99682.34;;;11.61;100.00
38812;BME280;24553;51.640;-0.752;2023-03-18T01:41:09;99678.22;;;11.65;100.00
38812;BME280;24553;51.640;-0.752;2023-03-18T01:43:37;99684.88;;;11.74;100.00
38812;BME280;24553;51.640;-0.752;2023-03-18T01:48:57;99674.25;;;11.74;100.00
38812;BME280;24553;51.640;-0.752;2023-03-18T01:51:25;99668.44;;;11.84;100.00
38812;BME280;24553;51.640;-0.752;2023-03-18T01:53:52;99659.88;;;11.88;100.00
38812;BME280;24553;51.640;-0.752;2023-03-18T01:56:18;99657.41;;;11.87;100.00
38812;BME280;24553;51.640;-0.752;2023-03-18T01:58:49;99658.00;;;11.89;100.00
38812;BME280;24553;51.640;-0.752;2023-03-18T02:03:42;99657.22;;;11.88;100.00
38812;BME280;24553;51.640;-0.752;2023-03-18T02:06:09;99659.06;;;11.88;100.00
38812;BME280;24553;51.640;-0.752;2023-03-18T02:08:37;99652.09;;;11.87;100.00
38812;BME280;24553;51.640;-0.752;2023-03-18T02:11:05;99643.50;;;11.85;100.00
38812;BME280;24553;51.640;-0.752;2023-03-18T02:13:33;99650.66;;;11.84;100.00
38812;BME280;24553;51.640;-0.752;2023-03-18T02:16:05;99639.88;;;11.79;100.00
38812;BME280;24553;51.640;-0.752;2023-03-18T02:18:37;99649.03;;;11.65;100.00
38812;BME280;24553;51.640;-0.752;2023-03-18T02:21:18;99648.53;;;11.49;100.00
38812;BME280;24553;51.640;-0.752;2023-03-18T02:26:42;99655.75;;;11.42;100.00
38812;BME280;24553;51.640;-0.752;2023-03-18T02:29:11;99653.69;;;11.44;100.00
38812;BME280;24553;51.640;-0.752;2023-03-18T02:31:39;99652.81;;;11.50;100.00
38812;BME280;24553;51.640;-0.752;2023-03-18T02:34:06;99641.25;;;11.63;100.00
38812;BME280;24553;51.640;-0.752;2023-03-18T02:36:34;99645.31;;;11.66;100.00
38812;BME280;24553;51.640;-0.752;2023-03-18T02:39:00;99649.03;;;11.65;100.00
38812;BME280;24553;51.640;-0.752;2023-03-18T02:41:29;99649.66;;;11.60;100.00
38812;BME280;24553;51.640;-0.752;2023-03-18T02:43:56;99652.25;;;11.67;100.00
38812;BME280;24553;51.640;-0.752;2023-03-18T02:49:08;99649.34;;;11.75;100.00
38812;BME280;24553;51.640;-0.752;2023-03-18T02:51:35;99656.63;;;11.79;100.00
38812;BME280;24553;51.640;-0.752;2023-03-18T02:54:13;99658.63;;;11.84;100.00
38812;BME280;24553;51.640;-0.752;2023-03-18T02:56:40;99655.16;;;11.90;100.00
38812;BME280;24553;51.640;-0.752;2023-03-18T02:59:06;99648.94;;;11.96;100.00
38812;BME280;24553;51.640;-0.752;2023-03-18T03:01:32;99659.38;;;11.98;100.00
38812;BME280;24553;51.640;-0.752;2023-03-18T03:03:58;99656.88;;;12.03;100.00
38812;BME280;24553;51.640;-0.752;2023-03-18T03:06:23;99654.56;;;12.07;100.00
38812;BME280;24553;51.640;-0.752;2023-03-18T03:08:50;99657.00;;;12.08;100.00
38812;BME280;24553;51.640;-0.752;2023-03-18T03:11:16;99659.53;;;12.03;100.00
38812;BME280;24553;51.640;-0.752;2023-03-18T03:13:42;99651.91;;;12.07;100.00
38812;BME280;24553;51.640;-0.752;2023-03-18T03:16:10;99659.59;;;12.15;100.00
38812;BME280;24553;51.640;-0.752;2023-03-18T03:18:36;99655.53;;;12.12;100.00
38812;BME280;24553;51.640;-0.752;2023-03-18T03:21:02;99656.31;;;12.13;100.00
38812;BME280;24553;51.640;-0.752;2023-03-18T03:23:27;99643.19;;;12.18;100.00
38812;BME280;24553;51.640;-0.752;2023-03-18T03:25:53;99653.63;;;12.19;100.00
38812;BME280;24553;51.640;-0.752;2023-03-18T03:28:19;99667.72;;;12.20;100.00
38812;BME280;24553;51.640;-0.752;2023-03-18T03:30:45;99643.19;;;12.18;100.00
38812;BME280;24553;51.640;-0.752;2023-03-18T03:33:11;99653.81;;;12.18;100.00
38812;BME280;24553;51.640;-0.752;2023-03-18T03:35:37;99660.84;;;12.12;100.00
38812;BME280;24553;51.640;-0.752;2023-03-18T03:38:03;99650.97;;;12.19;100.00
38812;BME280;24553;51.640;-0.752;2023-03-18T03:40:28;99662.91;;;12.29;100.00
38812;BME280;24553;51.640;-0.752;2023-03-18T03:42:54;99656.78;;;12.28;100.00
38812;BME280;24553;51.640;-0.752;2023-03-18T03:45:19;99656.13;;;12.33;100.00
38812;BME280;24553;51.640;-0.752;2023-03-18T03:47:45;99659.13;;;12.36;100.00
38812;BME280;24553;51.640;-0.752;2023-03-18T03:50:12;99649.09;;;12.38;100.00
38812;BME280;24553;51.640;-0.752;2023-03-18T03:52:38;99656.75;;;12.47;100.00
38812;BME280;24553;51.640;-0.752;2023-03-18T03:55:05;99663.13;;;12.46;100.00
38812;BME280;24553;51.640;-0.752;2023-03-18T03:57:31;99659.28;;;12.41;100.00
38812;BME280;24553;51.640;-0.752;2023-03-18T03:59:57;99666.69;;;12.39;100.00
38812;BME280;24553;51.640;-0.752;2023-03-18T04:02:22;99658.84;;;12.44;100.00
38812;BME280;24553;51.640;-0.752;2023-03-18T04:04:49;99660.91;;;12.42;100.00
38812;BME280;24553;51.640;-0.752;2023-03-18T04:07:15;99664.16;;;12.44;100.00
38812;BME280;24553;51.640;-0.752;2023-03-18T04:09:40;99662.53;;;12.43;100.00
38812;BME280;24553;51.640;-0.752;2023-03-18T04:12:07;99658.84;;;12.44;100.00
38812;BME280;24553;51.640;-0.752;2023-03-18T04:14:33;99661.50;;;12.44;100.00
38812;BME280;24553;51.640;-0.752;2023-03-18T04:16:58;99660.81;;;12.49;100.00
38812;BME280;24553;51.640;-0.752;2023-03-18T04:19:25;99664.03;;;12.39;100.00
38812;BME280;24553;51.640;-0.752;2023-03-18T04:21:52;99678.34;;;12.20;100.00
38812;BME280;24553;51.640;-0.752;2023-03-18T04:24:21;99681.00;;;12.20;100.00
38812;BME280;24553;51.640;-0.752;2023-03-18T04:26:46;99679.53;;;12.24;100.00
38812;BME280;24553;51.640;-0.752;2023-03-18T04:29:12;99670.88;;;12.29;100.00
38812;BME280;24553;51.640;-0.752;2023-03-18T04:31:38;99665.19;;;12.25;100.00
38812;BME280;24553;51.640;-0.752;2023-03-18T04:34:03;99668.06;;;12.23;100.00
38812;BME280;24553;51.640;-0.752;2023-03-18T04:36:29;99659.06;;;12.25;100.00
38812;BME280;24553;51.640;-0.752;2023-03-18T04:38:55;99667.06;;;12.25;100.00
38812;BME280;24553;51.640;-0.752;2023-03-18T04:41:21;99673.81;;;12.20;100.00
38812;BME280;24553;51.640;-0.752;2023-03-18T04:43:46;99673.53;;;12.10;100.00
38812;BME280;24553;51.640;-0.752;2023-03-18T04:46:13;99679.94;;;12.03;100.00
38812;BME280;24553;51.640;-0.752;2023-03-18T04:48:39;99678.53;;;12.00;100.00
38812;BME280;24553;51.640;-0.752;2023-03-18T04:51:05;99677.28;;;12.03;100.00
38812;BME280;24553;51.640;-0.752;2023-03-18T04:53:33;99674.72;;;12.14;100.00
38812;BME280;24553;51.640;-0.752;2023-03-18T04:55:58;99673.09;;;12.13;100.00
38812;BME280;24553;51.640;-0.752;2023-03-18T04:58:24;99670.22;;;12.15;100.00
38812;BME280;24553;51.640;-0.752;2023-03-18T05:00:50;99669.06;;;12.11;100.00
38812;BME280;24553;51.640;-0.752;2023-03-18T05:03:15;99663.72;;;12.11;100.00
38812;BME280;24553;51.640;-0.752;2023-03-18T05:05:41;99672.28;;;12.13;100.00
38812;BME280;24553;51.640;-0.752;2023-03-18T05:08:06;99669.06;;;12.11;100.00
38812;BME280;24553;51.640;-0.752;2023-03-18T05:10:32;99674.50;;;12.16;100.00
38812;BME280;24553;51.640;-0.752;2023-03-18T05:12:57;99668.75;;;12.19;100.00
38812;BME280;24553;51.640;-0.752;2023-03-18T05:15:23;99665.03;;;12.38;100.00
38812;BME280;24553;51.640;-0.752;2023-03-18T05:17:48;99650.28;;;12.42;100.00
38812;BME280;24553;51.640;-0.752;2023-03-18T05:20:13;99648.44;;;12.43;100.00
38812;BME280;24553;51.640;-0.752;2023-03-18T05:22:39;99658.91;;;12.38;100.00
38812;BME280;24553;51.640;-0.752;2023-03-18T05:25:05;99647.69;;;12.36;100.00
38812;BME280;24553;51.640;-0.752;2023-03-18T05:27:31;99649.53;;;12.35;100.00
38812;BME280;24553;51.640;-0.752;2023-03-18T05:29:57;99642.16;;;12.37;100.00
38812;BME280;24553;51.640;-0.752;2023-03-18T05:32:22;99646.81;;;12.42;100.00
38812;BME280;24553;51.640;-0.752;2023-03-18T05:34:48;99645.19;;;12.41;100.00
38812;BME280;24553;51.640;-0.752;2023-03-18T05:37:15;99637.28;;;12.34;100.00
38812;BME280;24553;51.640;-0.752;2023-03-18T05:39:41;99646.44;;;12.38;100.00
38812;BME280;24553;51.640;-0.752;2023-03-18T05:42:07;99650.13;;;12.37;100.00
38812;BME280;24553;51.640;-0.752;2023-03-18T05:44:32;99646.44;;;12.38;100.00
38812;BME280;24553;51.640;-0.752;2023-03-18T05:46:58;99651.84;;;12.32;100.00
38812;BME280;24553;51.640;-0.752;2023-03-18T05:49:23;99650.44;;;12.29;100.00
38812;BME280;24553;51.640;-0.752;2023-03-18T05:51:49;99663.13;;;12.27;100.00
38812;BME280;24553;51.640;-0.752;2023-03-18T05:54:15;99663.03;;;12.34;100.00
38812;BME280;24553;51.640;-0.752;2023-03-18T05:56:42;99660.19;;;12.35;100.00
38812;BME280;24553;51.640;-0.752;2023-03-18T05:59:08;99656.56;;;12.30;100.00
38812;BME280;24553;51.640;-0.752;2023-03-18T06:01:35;99660.09;;;12.42;100.00
38812;BME280;24553;51.640;-0.752;2023-03-18T06:04:00;99662.78;;;12.42;100.00
38812;BME280;24553;51.640;-0.752;2023-03-18T06:06:26;99664.59;;;12.41;100.00
38812;BME280;24553;51.640;-0.752;2023-03-18T06:08:52;99663.88;;;12.34;100.00
38812;BME280;24553;51.640;-0.752;2023-03-18T06:11:18;99666.44;;;12.41;100.00
38812;BME280;24553;51.640;-0.752;2023-03-18T06:13:43;99667.38;;;12.47;100.00
38812;BME280;24553;51.640;-0.752;2023-03-18T06:16:09;99665.19;;;12.43;100.00
38812;BME280;24553;51.640;-0.752;2023-03-18T06:18:35;99673.81;;;12.39;100.00
38812;BME280;24553;51.640;-0.752;2023-03-18T06:21:01;99675.16;;;12.30;100.00
38812;BME280;24553;51.640;-0.752;2023-03-18T06:23:26;99685.19;;;12.28;100.00
38812;BME280;24553;51.640;-0.752;2023-03-18T06:25:52;99685.19;;;12.28;100.00
38812;BME280;24553;51.640;-0.752;2023-03-18T06:28:17;99689.88;;;12.32;100.00
38812;BME280;24553;51.640;-0.752;2023-03-18T06:30:43;99691.56;;;12.27;100.00
38812;BME280;24553;51.640;-0.752;2023-03-18T06:33:09;99694.28;;;12.20;100.00
38812;BME280;24553;51.640;-0.752;2023-03-18T06:35:34;99697.75;;;12.20;100.00
38812;BME280;24553;51.640;-0.752;2023-03-18T06:38:00;99696.50;;;12.23;100.00
38812;BME280;24553;51.640;-0.752;2023-03-18T06:40:27;99695.69;;;12.22;100.00
38812;BME280;24553;51.640;-0.752;2023-03-18T06:42:53;99701.38;;;12.26;100.00
38812;BME280;24553;51.640;-0.752;2023-03-18T06:45:19;99700.50;;;12.32;100.00
38812;BME280;24553;51.640;-0.752;2023-03-18T06:47:45;99701.09;;;12.34;100.00
38812;BME280;24553;51.640;-0.752;2023-03-18T06:50:12;99703.31;;;12.37;100.00
38812;BME280;24553;51.640;-0.752;2023-03-18T06:52:37;99707.44;;;12.33;100.00
38812;BME280;24553;51.640;-0.752;2023-03-18T06:55:04;99704.75;;;12.33;100.00
38812;BME280;24553;51.640;-0.752;2023-03-18T06:57:30;99705.81;;;12.32;100.00
38812;BME280;24553;51.640;-0.752;2023-03-18T06:59:57;99710.09;;;12.33;100.00
38812;BME280;24553;51.640;-0.752;2023-03-18T07:02:22;99709.06;;;12.34;100.00
38812;BME280;24553;51.640;-0.752;2023-03-18T07:04:49;99715.94;;;12.42;100.00
38812;BME280;24553;51.640;-0.752;2023-03-18T07:07:15;99718.44;;;12.55;100.00
38812;BME280;24553;51.640;-0.752;2023-03-18T07:09:41;99717.63;;;12.55;100.00
38812;BME280;24553;51.640;-0.752;2023-03-18T07:12:08;99728.78;;;12.45;100.00
38812;BME280;24553;51.640;-0.752;2023-03-18T07:14:34;99727.81;;;12.39;100.00
38812;BME280;24553;51.640;-0.752;2023-03-18T07:16:59;99727.13;;;12.44;100.00
38812;BME280;24553;51.640;-0.752;2023-03-18T07:19:24;99727.13;;;12.44;100.00
38812;BME280;24553;51.640;-0.752;2023-03-18T07:21:50;99732.47;;;12.44;100.00
38812;BME280;24553;51.640;-0.752;2023-03-18T07:24:16;99736.09;;;12.50;100.00
38812;BME280;24553;51.640;-0.752;2023-03-18T07:26:42;99734.84;;;12.52;100.00
38812;BME280;24553;51.640;-0.752;2023-03-18T07:29:07;99730.78;;;12.50;100.00
38812;BME280;24553;51.640;-0.752;2023-03-18T07:31:32;99730.34;;;12.53;100.00
38812;BME280;24553;51.640;-0.752;2023-03-18T07:33:58;99729.88;;;12.56;100.00
38812;BME280;24553;51.640;-0.752;2023-03-18T07:36:23;99718.59;;;12.60;100.00
38812;BME280;24553;51.640;-0.752;2023-03-18T07:38:49;99730.25;;;12.59;100.00
38812;BME280;24553;51.640;-0.752;2023-03-18T07:41:15;99728.91;;;12.69;100.00
38812;BME280;24553;51.640;-0.752;2023-03-18T07:43:40;99729.06;;;12.74;100.00
38812;BME280;24553;51.640;-0.752;2023-03-18T07:46:07;99734.75;;;12.77;100.00
38812;BME280;24553;51.640;-0.752;2023-03-18T07:48:32;99735.34;;;12.79;100.00
38812;BME280;24553;51.640;-0.752;2023-03-18T07:50:59;99730.09;;;12.73;100.00
38812;BME280;24553;51.640;-0.752;2023-03-18T07:53:25;99734.16;;;12.75;100.00
38812;BME280;24553;51.640;-0.752;2023-03-18T07:55:51;99735.78;;;12.76;100.00
38812;BME280;24553;51.640;-0.752;2023-03-18T07:58:17;99739.88;;;12.60;100.00
38812;BME280;24553;51.640;-0.752;2023-03-18T08:00:42;99730.78;;;12.68;100.00
38812;BME280;24553;51.640;-0.752;2023-03-18T08:03:10;99736.31;;;12.66;100.00
38812;BME280;24553;51.640;-0.752;2023-03-18T08:05:36;99732.38;;;12.69;100.00
38812;BME280;24553;51.640;-0.752;2023-03-18T08:08:01;99732.19;;;12.71;100.00
38812;BME280;24553;51.640;-0.752;2023-03-18T08:10:27;99739.47;;;12.57;100.00
38812;BME280;24553;51.640;-0.752;2023-03-18T08:12:53;99746.59;;;12.63;100.00
38812;BME280;24553;51.640;-0.752;2023-03-18T08:15:18;99744.28;;;12.66;100.00
38812;BME280;24553;51.640;-0.752;2023-03-18T08:17:43;99738.75;;;12.68;100.00
38812;BME280;24553;51.640;-0.752;2023-03-18T08:20:09;99742.88;;;12.64;100.00
38812;BME280;24553;51.640;-0.752;2023-03-18T08:22:36;99746.44;;;12.58;100.00
38812;BME280;24553;51.640;-0.752;2023-03-18T08:25:01;99749.31;;;12.56;100.00
38812;BME280;24553;51.640;-0.752;2023-03-18T08:27:27;99739.88;;;12.60;100.00
38812;BME280;24553;51.640;-0.752;2023-03-18T08:29:52;99747.75;;;12.67;100.00
38812;BME280;24553;51.640;-0.752;2023-03-18T08:32:18;99750.56;;;12.72;100.00
38812;BME280;24553;51.640;-0.752;2023-03-18T08:34:44;99745.22;;;12.72;100.00
38812;BME280;24553;51.640;-0.752;2023-03-18T08:37:10;99749.16;;;12.70;100.00
38812;BME280;24553;51.640;-0.752;2023-03-18T08:39:36;99749.00;;;12.64;100.00
38812;BME280;24553;51.640;-0.752;2023-03-18T08:42:02;99753.97;;;12.61;100.00
38812;BME280;24553;51.640;-0.752;2023-03-18T08:44:28;99753.16;;;12.60;100.00
38812;BME280;24553;51.640;-0.752;2023-03-18T08:46:55;99749.91;;;12.58;100.00
38812;BME280;24553;51.640;-0.752;2023-03-18T08:49:20;99749.44;;;12.61;100.00
38812;BME280;24553;51.640;-0.752;2023-03-18T08:51:46;99752.66;;;12.70;100.00
38812;BME280;24553;51.640;-0.752;2023-03-18T08:54:11;99755.66;;;12.74;100.00
38812;BME280;24553;51.640;-0.752;2023-03-18T08:56:37;99748.28;;;12.76;100.00
38812;BME280;24553;51.640;-0.752;2023-03-18T08:59:02;99760.03;;;12.68;100.00
38812;BME280;24553;51.640;-0.752;2023-03-18T09:01:28;99759.63;;;12.64;100.00
38812;BME280;24553;51.640;-0.752;2023-03-18T09:03:54;99752.91;;;12.62;100.00
38812;BME280;24553;51.640;-0.752;2023-03-18T09:06:21;99754.78;;;12.61;100.00
38812;BME280;24553;51.640;-0.752;2023-03-18T09:08:47;99755.44;;;12.75;100.00
38812;BME280;24553;51.640;-0.752;2023-03-18T09:11:12;99760.19;;;12.73;100.00
38812;BME280;24553;51.640;-0.752;2023-03-18T09:13:37;99760.69;;;12.82;100.00
38812;BME280;24553;51.640;-0.752;2023-03-18T09:16:03;99759.06;;;12.81;100.00
38812;BME280;24553;51.640;-0.752;2023-03-18T09:18:29;99755.72;;;12.85;100.00
38812;BME280;24553;51.640;-0.752;2023-03-18T09:20:55;99757.22;;;12.81;100.00
38812;BME280;24553;51.640;-0.752;2023-03-18T09:23:21;99753.06;;;12.85;100.00
38812;BME280;24553;51.640;-0.752;2023-03-18T09:25:47;99754.91;;;12.85;100.00
38812;BME280;24553;51.640;-0.752;2023-03-18T09:28:14;99757.34;;;12.86;100.00
38812;BME280;24553;51.640;-0.752;2023-03-18T09:30:41;99756.63;;;12.79;100.00
38812;BME280;24553;51.640;-0.752;2023-03-18T09:33:07;99756.91;;;12.71;100.00
38812;BME280;24553;51.640;-0.752;2023-03-18T09:35:33;99766.97;;;12.51;100.00
38812;BME280;24553;51.640;-0.752;2023-03-18T09:38:00;99772.72;;;12.48;100.00
38812;BME280;24553;51.640;-0.752;2023-03-18T09:40:30;99764.31;;;12.51;100.00
38812;BME280;24553;51.640;-0.752;2023-03-18T09:54:17;99774.03;;;12.57;100.00
38812;BME280;24553;51.640;-0.752;2023-03-18T09:56:47;99768.97;;;12.55;100.00
38812;BME280;24553;51.640;-0.752;2023-03-18T10:01:47;99774.06;;;12.75;100.00
38812;BME280;24553;51.640;-0.752;2023-03-18T10:04:20;99776.03;;;12.80;100.00
38812;BME280;24553;51.640;-0.752;2023-03-18T10:06:51;99777.44;;;12.82;100.00
38812;BME280;24553;51.640;-0.752;2023-03-18T10:09:39;99780.69;;;12.84;100.00
38812;BME280;24553;51.640;-0.752;2023-03-18T10:12:43;99782.31;;;12.85;100.00
38812;BME280;24553;51.640;-0.752;2023-03-18T10:15:16;99774.63;;;12.77;100.00
38812;BME280;24553;51.640;-0.752;2023-03-18T10:17:59;99779.28;;;12.82;100.00
38812;BME280;24553;51.640;-0.752;2023-03-18T10:20:36;99785.66;;;12.81;100.00
38812;BME280;24553;51.640;-0.752;2023-03-18T10:23:46;99779.38;;;12.94;100.00
38812;BME280;24553;51.640;-0.752;2023-03-18T10:26:25;99777.41;;;13.01;100.00
38812;BME280;24553;51.640;-0.752;2023-03-18T10:29:30;99786.88;;;13.15;100.00
38812;BME280;24553;51.640;-0.752;2023-03-18T10:40:00;99791.84;;;13.30;100.00
38812;BME280;24553;51.640;-0.752;2023-03-18T10:42:29;99789.38;;;13.28;100.00
38812;BME280;24553;51.640;-0.752;2023-03-18T10:45:07;99792.84;;;13.29;100.00
38812;BME280;24553;51.640;-0.752;2023-03-18T10:47:35;99791.72;;;13.37;100.00
38812;BME280;24553;51.640;-0.752;2023-03-18T10:50:15;99794.97;;;13.27;100.00
38812;BME280;24553;51.640;-0.752;2023-03-18T10:52:51;99795.00;;;13.20;100.00
38812;BME280;24553;51.640;-0.752;2023-03-18T10:55:23;99807.44;;;13.08;100.00
38812;BME280;24553;51.640;-0.752;2023-03-18T10:57:49;99801.38;;;13.01;100.00
38812;BME280;24553;51.640;-0.752;2023-03-18T11:00:35;99804.59;;;13.21;100.00
38812;BME280;24553;51.640;-0.752;2023-03-18T11:03:03;99802.41;;;13.18;100.00
38812;BME280;24553;51.640;-0.752;2023-03-18T11:05:33;99801.22;;;13.14;100.00
38812;BME280;24553;51.640;-0.752;2023-03-18T11:08:05;99814.16;;;13.10;100.00
38812;BME280;24553;51.640;-0.752;2023-03-18T11:10:38;99811.22;;;13.00;100.00
38812;BME280;24553;51.640;-0.752;2023-03-18T11:13:15;99809.22;;;12.96;100.00
38812;BME280;24553;51.640;-0.752;2023-03-18T11:15:47;99807.91;;;12.86;100.00
38812;BME280;24553;51.640;-0.752;2023-03-18T11:18:16;99809.59;;;12.81;100.00
38812;BME280;24553;51.640;-0.752;2023-03-18T11:20:43;99809.81;;;12.79;100.00
38812;BME280;24553;51.640;-0.752;2023-03-18T11:23:17;99813.53;;;12.78;100.00
38812;BME280;24553;51.640;-0.752;2023-03-18T11:25:50;99809.50;;;12.69;100.00
38812;BME280;24553;51.640;-0.752;2023-03-18T11:28:21;99811.06;;;12.77;100.00
38812;BME280;24553;51.640;-0.752;2023-03-18T11:30:50;99819.66;;;12.79;100.00
38812;BME280;24553;51.640;-0.752;2023-03-18T11:33:23;99815.50;;;12.83;100.00
38812;BME280;24553;51.640;-0.752;2023-03-18T11:35:53;99815.88;;;12.68;100.00
38812;BME280;24553;51.640;-0.752;2023-03-18T11:38:24;99813.66;;;12.65;100.00
38812;BME280;24553;51.640;-0.752;2023-03-18T11:43:34;99816.69;;;12.87;100.00
38812;BME280;24553;51.640;-0.752;2023-03-18T11:46:03;99814.69;;;12.82;100.00
38812;BME280;24553;51.640;-0.752;2023-03-18T11:48:35;99816.34;;;12.83;100.00
38812;BME280;24553;51.640;-0.752;2023-03-18T12:12:57;99821.50;;;12.97;100.00
38812;BME280;24553;51.640;-0.752;2023-03-18T12:21:20;99816.19;;;12.97;100.00
38812;BME280;24553;51.640;-0.752;2023-03-18T12:26:28;99815.09;;;13.16;100.00
38812;BME280;24553;51.640;-0.752;2023-03-18T12:31:42;99803.59;;;13.22;100.00
38812;BME280;24553;51.640;-0.752;2023-03-18T12:37:27;99807.84;;;13.42;100.00
38812;BME280;24553;51.640;-0.752;2023-03-18T12:47:35;99817.41;;;13.61;100.00
38812;BME280;24553;51.640;-0.752;2023-03-18T12:50:17;99813.72;;;13.62;100.00
38812;BME280;24553;51.640;-0.752;2023-03-18T12:52:59;99815.69;;;13.67;100.00
38812;BME280;24553;51.640;-0.752;2023-03-18T12:55:32;99819.56;;;13.83;100.00
38812;BME280;24553;51.640;-0.752;2023-03-18T12:58:27;99823.41;;;13.99;100.00
38812;BME280;24553;51.640;-0.752;2023-03-18T13:00:58;99823.00;;;14.25;100.00
38812;BME280;24553;51.640;-0.752;2023-03-18T13:03:40;99824.38;;;14.39;100.00
38812;BME280;24553;51.640;-0.752;2023-03-18T13:17:00;99820.06;;;14.03;100.00
38812;BME280;24553;51.640;-0.752;2023-03-18T13:19:29;99819.34;;;13.96;100.00
38812;BME280;24553;51.640;-0.752;2023-03-18T13:28:12;99827.00;;;14.04;100.00
38812;BME280;24553;51.640;-0.752;2023-03-18T13:33:58;99827.22;;;13.91;100.00
38812;BME280;24553;51.640;-0.752;2023-03-18T13:37:13;99822.47;;;13.93;100.00
38812;BME280;24553;51.640;-0.752;2023-03-18T13:42:26;99825.59;;;13.90;100.00
38812;BME280;24553;51.640;-0.752;2023-03-18T13:45:00;99823.53;;;13.92;100.00
38812;BME280;24553;51.640;-0.752;2023-03-18T13:47:31;99818.06;;;13.99;100.00
38812;BME280;24553;51.640;-0.752;2023-03-18T13:50:01;99815.09;;;14.18;100.00
38812;BME280;24553;51.640;-0.752;2023-03-18T13:52:41;99820.69;;;14.40;100.00
38812;BME280;24553;51.640;-0.752;2023-03-18T14:00:44;99810.78;;;15.00;100.00
38812;BME280;24553;51.640;-0.752;2023-03-18T14:03:29;99807.03;;;15.13;100.00
38812;BME280;24553;51.640;-0.752;2023-03-18T14:11:35;99806.63;;;15.49;100.00
38812;BME280;24553;51.640;-0.752;2023-03-18T14:14:03;99810.41;;;15.37;100.00
38812;BME280;24553;51.640;-0.752;2023-03-18T14:19:05;99816.22;;;15.05;100.00
38812;BME280;24553;51.640;-0.752;2023-03-18T14:21:43;99818.06;;;15.04;100.00
38812;BME280;24553;51.640;-0.752;2023-03-18T14:24:21;99817.16;;;14.99;100.00
38812;BME280;24553;51.640;-0.752;2023-03-18T14:29:45;99818.88;;;15.05;100.00
38812;BME280;24553;51.640;-0.752;2023-03-18T14:32:36;99812.69;;;15.16;100.00
38812;BME280;24553;51.640;-0.752;2023-03-18T14:35:24;99817.78;;;15.18;100.00
38812;BME280;24553;51.640;-0.752;2023-03-18T14:37:59;99820.00;;;15.21;100.00
38812;BME280;24553;51.640;-0.752;2023-03-18T14:40:29;99812.31;;;15.24;100.00
38812;BME280;24553;51.640;-0.752;2023-03-18T14:43:01;99808.44;;;15.32;100.00
38812;BME280;24553;51.640;-0.752;2023-03-18T14:45:34;99807.84;;;15.59;100.00